createdAt,value
2019-01-25T00:02:09.691Z,101035.94
2019-01-25T00:04:46.070Z,101037.63
2019-01-25T00:07:17.398Z,101046.09
2019-01-25T00:09:49.005Z,101042.23
2019-01-25T00:12:20.483Z,101044.66
2019-01-25T00:14:54.675Z,101043.73
2019-01-25T00:17:26.566Z,101036.00
2019-01-25T00:19:58.056Z,101032.91
2019-01-25T00:22:31.915Z,101036.22
2019-01-25T00:25:03.432Z,101041.78
2019-01-25T00:27:34.798Z,101041.63
2019-01-25T00:30:08.127Z,101043.29
2019-01-25T00:32:41.449Z,101044.95
2019-01-25T00:35:12.922Z,101044.80
2019-01-25T00:37:44.268Z,101046.08
2019-01-25T00:40:16.964Z,101050.16
2019-01-25T00:42:48.888Z,101043.50
2019-01-25T00:45:20.323Z,101048.29
2019-01-25T00:47:52.845Z,101048.44
2019-01-25T00:50:27.163Z,101041.84
2019-01-25T00:52:58.497Z,101046.59
2019-01-25T00:55:29.799Z,101048.44
2019-01-25T00:58:05.782Z,101048.44
2019-01-25T01:00:37.270Z,101048.44
2019-01-25T01:03:08.882Z,101054.11
2019-01-25T01:05:41.828Z,101047.67
2019-01-25T01:08:13.097Z,101055.80
2019-01-25T01:10:44.400Z,101061.84
2019-01-25T01:13:15.817Z,101054.33
2019-01-25T01:15:47.189Z,101060.96
2019-01-25T01:18:18.510Z,101053.81
2019-01-25T01:20:50.011Z,101066.85
2019-01-25T01:23:21.297Z,101064.13
2019-01-25T01:25:52.486Z,101069.28
2019-01-25T01:28:23.728Z,101070.56
2019-01-25T01:30:54.946Z,101067.47
2019-01-25T01:33:26.170Z,101070.56
2019-01-25T01:35:57.463Z,101069.80
2019-01-25T01:38:28.819Z,101074.44
2019-01-25T01:41:00.095Z,101065.41
2019-01-25T01:43:31.458Z,101073.52
2019-01-25T01:46:02.790Z,101068.36
2019-01-25T01:48:34.070Z,101068.76
2019-01-25T01:51:05.614Z,101073.52
2019-01-25T01:53:36.847Z,101075.20
2019-01-25T01:56:08.243Z,101066.91
2019-01-25T01:58:39.575Z,101068.76
2019-01-25T02:01:10.825Z,101066.55
2019-01-25T02:03:42.026Z,101069.50
2019-01-25T02:06:14.473Z,101066.91
2019-01-25T02:08:45.789Z,101066.40
2019-01-25T02:11:17.036Z,101062.91
2019-01-25T02:13:48.274Z,101061.98
2019-01-25T02:16:19.590Z,101064.56
2019-01-25T02:18:50.799Z,101063.27
2019-01-25T02:21:22.040Z,101062.91
2019-01-25T02:23:53.445Z,101064.56
2019-01-25T02:26:24.759Z,101057.19
2019-01-25T02:28:56.076Z,101058.89
2019-01-25T02:31:27.279Z,101059.41
2019-01-25T02:33:58.627Z,101052.44
2019-01-25T02:36:29.987Z,101052.29
2019-01-25T02:39:01.254Z,101046.59
2019-01-25T02:41:32.623Z,101042.56
2019-01-25T02:44:03.875Z,101038.92
2019-01-25T02:46:35.186Z,101040.58
2019-01-25T02:49:06.480Z,101038.92
2019-01-25T02:51:37.713Z,101046.65
2019-01-25T02:54:09.105Z,101042.27
2019-01-25T02:56:40.348Z,101048.16
2019-01-25T02:59:11.600Z,101048.71
2019-01-25T03:01:42.802Z,101048.71
2019-01-25T03:04:14.064Z,101048.71
2019-01-25T03:06:45.321Z,101051.28
2019-01-25T03:09:16.635Z,101051.28
2019-01-25T03:11:48.323Z,101053.09
2019-01-25T03:14:19.664Z,101049.75
2019-01-25T03:16:50.927Z,101049.38
2019-01-25T03:19:23.181Z,101048.45
2019-01-25T03:21:54.491Z,101044.99
2019-01-25T03:24:25.845Z,101038.70
2019-01-25T03:26:57.141Z,101043.86
2019-01-25T03:29:28.348Z,101048.23
2019-01-25T03:31:59.699Z,101041.28
2019-01-25T03:34:31.010Z,101049.93
2019-01-25T03:37:02.199Z,101051.59
2019-01-25T03:39:33.521Z,101050.82
2019-01-25T03:42:05.125Z,101051.22
2019-01-25T03:44:36.520Z,101052.88
2019-01-25T03:47:07.743Z,101053.80
2019-01-25T03:49:38.988Z,101049.38
2019-01-25T03:52:10.310Z,101054.53
2019-01-25T03:54:41.676Z,101055.82
2019-01-25T03:57:13.114Z,101048.45
2019-01-25T03:59:44.447Z,101058.25
2019-01-25T04:02:15.672Z,101058.61
2019-01-25T04:04:46.995Z,101062.48
2019-01-25T04:07:26.169Z,101062.48
2019-01-25T04:09:57.548Z,101063.25
2019-01-25T04:12:28.928Z,101068.77
2019-01-25T04:15:00.212Z,101067.84
2019-01-25T04:17:31.579Z,101066.77
2019-01-25T04:20:02.905Z,101068.98
2019-01-25T04:22:34.290Z,101070.27
2019-01-25T04:25:07.963Z,101071.93
2019-01-25T04:27:40.655Z,101071.56
2019-01-25T04:30:17.848Z,101072.48
2019-01-25T04:32:49.208Z,101072.12
2019-01-25T04:35:20.372Z,101074.51
2019-01-25T04:37:52.721Z,101074.14
2019-01-25T04:40:23.916Z,101071.78
2019-01-25T04:42:55.311Z,101081.35
2019-01-25T04:45:26.522Z,101082.09
2019-01-25T04:47:57.801Z,101076.05
2019-01-25T04:50:29.095Z,101071.78
2019-01-25T04:53:00.378Z,101066.33
2019-01-25T04:55:33.313Z,101070.41
2019-01-25T04:58:16.157Z,101064.73
2019-01-25T05:00:47.909Z,101069.88
2019-01-25T05:03:22.306Z,101076.54
2019-01-25T05:05:53.659Z,101072.34
2019-01-25T05:08:24.852Z,101069.02
2019-01-25T05:10:56.048Z,101072.55
2019-01-25T05:13:27.375Z,101067.95
2019-01-25T05:15:58.796Z,101069.09
2019-01-25T05:18:30.123Z,101076.66
2019-01-25T05:21:01.388Z,101079.11
2019-01-25T05:23:32.583Z,101079.73
2019-01-25T05:26:03.957Z,101076.59
2019-01-25T05:28:35.352Z,101076.75
2019-01-25T05:31:08.080Z,101081.17
2019-01-25T05:33:39.455Z,101079.88
2019-01-25T05:36:10.714Z,101088.68
2019-01-25T05:38:47.076Z,101089.97
2019-01-25T05:41:19.470Z,101088.68
2019-01-25T05:43:50.689Z,101094.91
2019-01-25T05:46:22.000Z,101089.76
2019-01-25T05:48:53.377Z,101090.64
2019-01-25T05:51:24.857Z,101091.93
2019-01-25T05:53:56.163Z,101088.98
2019-01-25T05:56:27.415Z,101095.27
2019-01-25T05:58:58.727Z,101096.72
2019-01-25T06:01:29.987Z,101104.81
2019-01-25T06:04:01.275Z,101104.50
2019-01-25T06:06:32.498Z,101100.48
2019-01-25T06:09:05.348Z,101106.38
2019-01-25T06:11:37.901Z,101101.63
2019-01-25T06:14:09.269Z,101108.42
2019-01-25T06:16:42.165Z,101106.98
2019-01-25T06:19:13.519Z,101106.43
2019-01-25T06:21:44.647Z,101103.85
2019-01-25T06:24:16.111Z,101104.41
2019-01-25T06:26:47.417Z,101101.63
2019-01-25T06:29:18.728Z,101107.29
2019-01-25T06:31:49.940Z,101103.22
2019-01-25T06:34:21.216Z,101103.00
2019-01-25T06:36:52.414Z,101101.34
2019-01-25T06:39:23.710Z,101110.67
2019-01-25T06:41:54.978Z,101112.48
2019-01-25T06:44:26.165Z,101101.44
2019-01-25T06:46:57.427Z,101110.98
2019-01-25T06:49:28.674Z,101105.25
2019-01-25T06:51:59.977Z,101105.61
2019-01-25T06:54:31.330Z,101110.34
2019-01-25T06:57:04.483Z,101113.68
2019-01-25T06:59:39.076Z,101116.78
2019-01-25T07:02:17.453Z,101118.63
2019-01-25T07:04:48.823Z,101114.76
2019-01-25T07:07:28.194Z,101109.36
2019-01-25T07:09:59.477Z,101107.70
2019-01-25T07:12:30.782Z,101103.47
2019-01-25T07:15:03.128Z,101106.05
2019-01-25T07:17:34.430Z,101111.93
2019-01-25T07:20:07.648Z,101112.18
2019-01-25T07:22:38.870Z,101114.76
2019-01-25T07:25:10.717Z,101112.91
2019-01-25T07:27:41.980Z,101110.34
2019-01-25T07:30:13.334Z,101116.93
2019-01-25T07:32:44.633Z,101114.14
2019-01-25T07:35:15.907Z,101124.60
2019-01-25T07:37:47.371Z,101124.23
2019-01-25T07:40:18.669Z,101126.97
2019-01-25T07:42:50.206Z,101129.33
2019-01-25T07:45:21.804Z,101128.03
2019-01-25T07:47:54.438Z,101130.77
2019-01-25T07:50:25.700Z,101126.53
2019-01-25T07:52:56.930Z,101125.77
2019-01-25T07:55:28.145Z,101127.98
2019-01-25T07:57:59.531Z,101129.42
2019-01-25T08:00:30.738Z,101129.05
2019-01-25T08:03:02.041Z,101127.18
2019-01-25T08:05:33.257Z,101132.33
2019-01-25T08:08:04.431Z,101130.28
2019-01-25T08:10:36.729Z,101127.85
2019-01-25T08:13:07.899Z,101120.67
2019-01-25T08:15:39.139Z,101113.46
2019-01-25T08:18:10.548Z,101122.63
2019-01-25T08:20:41.864Z,101119.69
2019-01-25T08:23:13.033Z,101123.12
2019-01-25T08:25:44.347Z,101128.28
2019-01-25T08:28:15.579Z,101125.48
2019-01-25T08:30:46.919Z,101117.39
2019-01-25T08:33:18.165Z,101123.06
2019-01-25T08:35:49.572Z,101119.71
2019-01-25T08:38:20.836Z,101115.11
2019-01-25T08:40:52.153Z,101118.39
2019-01-25T08:43:23.349Z,101115.56
2019-01-25T08:45:54.585Z,101109.67
2019-01-25T08:48:25.976Z,101114.98
2019-01-25T08:50:57.317Z,101108.31
2019-01-25T08:53:28.603Z,101111.05
2019-01-25T08:55:59.889Z,101108.62
2019-01-25T08:58:31.235Z,101112.27
2019-01-25T09:01:02.542Z,101122.36
2019-01-25T09:03:34.769Z,101125.24
2019-01-25T09:06:06.063Z,101123.00
2019-01-25T09:08:37.394Z,101119.43
2019-01-25T09:11:08.612Z,101112.77
2019-01-25T09:13:39.938Z,101119.51
2019-01-25T09:16:11.352Z,101106.39
2019-01-25T09:18:42.553Z,101113.69
2019-01-25T09:21:13.903Z,101122.50
2019-01-25T09:23:45.263Z,101125.23
2019-01-25T09:26:16.520Z,101126.08
2019-01-25T09:28:47.926Z,101131.17
2019-01-25T09:31:19.345Z,101132.24
2019-01-25T09:33:50.728Z,101139.76
2019-01-25T09:36:21.982Z,101136.96
2019-01-25T09:38:53.461Z,101138.03
2019-01-25T09:41:24.704Z,101137.41
2019-01-25T09:43:56.074Z,101133.94
2019-01-25T09:46:27.286Z,101144.92
2019-01-25T09:48:58.498Z,101148.94
2019-01-25T09:51:29.770Z,101139.17
2019-01-25T09:54:01.054Z,101140.24
2019-01-25T09:56:32.420Z,101135.02
2019-01-25T09:59:04.003Z,101138.25
2019-01-25T10:01:35.579Z,101137.30
2019-01-25T10:04:06.949Z,101130.62
2019-01-25T10:06:38.415Z,101131.83
2019-01-25T10:09:10.137Z,101128.77
2019-01-25T10:11:41.431Z,101126.52
2019-01-25T10:14:12.607Z,101122.57
2019-01-25T10:16:44.871Z,101127.28
2019-01-25T10:19:16.260Z,101121.64
2019-01-25T10:21:47.505Z,101124.77
2019-01-25T10:24:18.744Z,101123.40
2019-01-25T10:26:49.922Z,101133.50
2019-01-25T10:29:21.303Z,101132.36
2019-01-25T10:31:52.552Z,101126.97
2019-01-25T10:34:23.810Z,101129.84
2019-01-25T10:36:56.170Z,101119.28
2019-01-25T10:39:27.447Z,101118.83
2019-01-25T10:41:58.757Z,101115.42
2019-01-25T10:44:31.016Z,101112.21
2019-01-25T10:47:02.428Z,101096.34
2019-01-25T10:49:33.616Z,101106.82
2019-01-25T10:52:04.808Z,101102.11
2019-01-25T10:54:36.146Z,101107.27
2019-01-25T10:57:07.346Z,101107.50
2019-01-25T10:59:39.569Z,101106.76
2019-01-25T11:02:10.890Z,101105.98
2019-01-25T11:04:42.167Z,101095.28
2019-01-25T11:07:13.563Z,101091.17
2019-01-25T11:09:44.870Z,101086.52
2019-01-25T11:12:17.344Z,101074.39
2019-01-25T11:14:48.513Z,101065.72
2019-01-25T11:17:19.935Z,101067.93
2019-01-25T11:19:51.311Z,101068.59
2019-01-25T11:22:22.947Z,101076.42
2019-01-25T11:24:54.291Z,101078.63
2019-01-25T11:27:25.577Z,101078.41
2019-01-25T11:29:56.928Z,101082.80
2019-01-25T11:32:28.320Z,101073.18
2019-01-25T11:34:59.681Z,101067.69
2019-01-25T11:37:31.098Z,101078.80
2019-01-25T11:40:02.811Z,101069.77
2019-01-25T11:42:34.008Z,101067.55
2019-01-25T11:45:06.064Z,101077.28
2019-01-25T11:47:37.274Z,101076.28
2019-01-25T11:50:10.997Z,101080.16
2019-01-25T11:52:42.594Z,101078.48
2019-01-25T11:55:14.491Z,101081.98
2019-01-25T11:57:45.895Z,101081.44
2019-01-25T12:00:22.921Z,101083.51
2019-01-25T12:02:54.411Z,101077.28
2019-01-25T12:05:25.811Z,101064.00
2019-01-25T12:07:57.098Z,101062.02
2019-01-25T12:10:29.715Z,101060.26
2019-01-25T12:13:01.109Z,101057.85
2019-01-25T12:15:32.401Z,101050.33
2019-01-25T12:18:03.637Z,101051.39
2019-01-25T12:20:34.918Z,101052.33
2019-01-25T12:23:06.244Z,101051.28
2019-01-25T12:25:37.462Z,101041.02
2019-01-25T12:28:08.702Z,101034.22
2019-01-25T12:30:42.187Z,101034.95
2019-01-25T12:33:13.511Z,101029.05
2019-01-25T12:35:45.386Z,101025.19
2019-01-25T12:38:16.651Z,101018.55
2019-01-25T12:40:47.924Z,101020.25
2019-01-25T12:43:23.890Z,101012.80
2019-01-25T12:45:52.283Z,101010.69
2019-01-25T12:48:23.551Z,101000.80
2019-01-25T12:51:05.889Z,101004.72
2019-01-25T12:53:37.241Z,101001.69
2019-01-25T12:56:08.579Z,100995.15
2019-01-25T12:58:40.396Z,101002.44
2019-01-25T13:01:12.090Z,100998.94
2019-01-25T13:03:43.644Z,100997.88
2019-01-25T13:06:14.948Z,101001.52
2019-01-25T13:08:46.422Z,101011.84
2019-01-25T13:11:20.772Z,101009.90
2019-01-25T13:13:52.518Z,101004.82
2019-01-25T13:16:24.034Z,101002.98
2019-01-25T13:18:55.264Z,101000.11
2019-01-25T13:21:26.629Z,100997.70
2019-01-25T13:23:57.891Z,100992.15
2019-01-25T13:26:29.137Z,100988.59
2019-01-25T13:29:00.568Z,100978.64
2019-01-25T13:31:31.922Z,100973.39
2019-01-25T13:34:03.431Z,100979.77
2019-01-25T13:36:34.605Z,100979.53
2019-01-25T13:39:09.495Z,100987.59
2019-01-25T13:41:42.412Z,100994.65
2019-01-25T13:44:13.625Z,100992.98
2019-01-25T13:46:44.997Z,100993.73
2019-01-25T13:49:16.190Z,100993.50
2019-01-25T13:51:47.426Z,100991.47
2019-01-25T13:54:18.629Z,100989.63
2019-01-25T13:56:49.997Z,100988.97
2019-01-25T13:59:21.311Z,100990.09
2019-01-25T14:01:56.203Z,100984.78
2019-01-25T14:04:25.686Z,100981.69
2019-01-25T14:06:56.842Z,100978.78
2019-01-25T14:09:28.186Z,100969.09
2019-01-25T14:11:59.799Z,100979.41
2019-01-25T14:14:31.079Z,100986.78
2019-01-25T14:17:02.482Z,100982.66
2019-01-25T14:19:33.850Z,100984.86
2019-01-25T14:22:05.293Z,100991.86
2019-01-25T14:24:37.122Z,100992.31
2019-01-25T14:27:08.441Z,100986.17
2019-01-25T14:29:39.673Z,100997.08
2019-01-25T14:32:11.048Z,100987.47
2019-01-25T14:34:42.391Z,100980.70
2019-01-25T14:37:13.714Z,100982.77
2019-01-25T14:39:45.068Z,100973.81
2019-01-25T14:42:16.500Z,100985.65
2019-01-25T14:44:47.884Z,100972.68
2019-01-25T14:47:19.285Z,100957.25
2019-01-25T14:49:51.638Z,100959.83
2019-01-25T14:52:23.042Z,100959.83
2019-01-25T14:54:54.498Z,100962.59
2019-01-25T14:57:25.907Z,100961.67
2019-01-25T14:59:57.169Z,100956.52
2019-01-25T15:02:29.325Z,100951.50
2019-01-25T15:05:01.584Z,100946.11
2019-01-25T15:07:32.832Z,100946.26
2019-01-25T15:10:04.840Z,100944.97
2019-01-25T15:12:37.169Z,100938.01
2019-01-25T15:15:10.169Z,100942.25
2019-01-25T15:17:41.552Z,100949.14
2019-01-25T15:20:15.740Z,100940.05
2019-01-25T15:22:47.254Z,100941.05
2019-01-25T15:25:18.803Z,100940.88
2019-01-25T15:27:50.094Z,100945.29
2019-01-25T15:30:24.416Z,100951.11
2019-01-25T15:32:56.214Z,100954.91
2019-01-25T15:35:27.628Z,100957.20
2019-01-25T15:37:58.986Z,100964.83
2019-01-25T15:40:30.554Z,100969.39
2019-01-25T15:43:02.057Z,100970.56
2019-01-25T15:45:33.406Z,100962.02
2019-01-25T15:48:04.912Z,100949.88
2019-01-25T15:50:36.133Z,100944.94
2019-01-25T15:53:07.510Z,100943.88
2019-01-25T15:55:38.904Z,100950.39
2019-01-25T15:58:10.142Z,100955.94
2019-01-25T16:00:41.547Z,100947.15
2019-01-25T16:03:12.836Z,100945.78
2019-01-25T16:05:44.184Z,100942.98
2019-01-25T16:08:15.353Z,100951.94
2019-01-25T16:10:46.727Z,100949.50
2019-01-25T16:13:18.039Z,100953.52
2019-01-25T16:15:49.367Z,100946.34
2019-01-25T16:18:20.972Z,100941.55
2019-01-25T16:20:52.234Z,100946.34
2019-01-25T16:23:23.572Z,100946.34
2019-01-25T16:25:54.761Z,100943.06
2019-01-25T16:28:26.030Z,100941.92
2019-01-25T16:30:57.354Z,100936.98
2019-01-25T16:33:28.666Z,100935.33
2019-01-25T16:35:59.898Z,100938.28
2019-01-25T16:38:31.384Z,100937.43
2019-01-25T16:41:02.663Z,100951.61
2019-01-25T16:43:36.063Z,100949.25
2019-01-25T16:46:09.167Z,100939.41
2019-01-25T16:48:40.444Z,100931.36
2019-01-25T16:51:11.726Z,100941.36
2019-01-25T16:53:43.062Z,100938.02
2019-01-25T16:56:14.365Z,100936.14
2019-01-25T16:58:45.933Z,100931.13
2019-01-25T17:01:17.252Z,100923.41
2019-01-25T17:03:48.527Z,100921.37
2019-01-25T17:06:19.844Z,100918.03
2019-01-25T17:08:51.011Z,100920.09
2019-01-25T17:11:22.288Z,100929.63
2019-01-25T17:13:53.930Z,100927.05
2019-01-25T17:16:25.144Z,100936.22
2019-01-25T17:18:56.892Z,100937.84
2019-01-25T17:21:28.220Z,100930.62
2019-01-25T17:23:59.529Z,100934.41
2019-01-25T17:26:31.700Z,100936.77
2019-01-25T17:29:03.008Z,100925.47
2019-01-25T17:31:34.391Z,100914.56
2019-01-25T17:34:05.858Z,100914.93
2019-01-25T17:36:37.423Z,100903.89
2019-01-25T17:39:14.455Z,100910.98
2019-01-25T17:41:45.813Z,100917.06
2019-01-25T17:44:17.371Z,100910.63
2019-01-25T17:46:48.670Z,100916.33
2019-01-25T17:49:20.092Z,100916.07
2019-01-25T17:51:51.991Z,100916.07
2019-01-25T17:54:23.475Z,100913.27
2019-01-25T17:56:54.960Z,100900.38
2019-01-25T17:59:26.707Z,100888.19
2019-01-25T18:01:58.271Z,100875.44
2019-01-25T18:04:29.823Z,100876.88
2019-01-25T18:07:01.055Z,100875.50
2019-01-25T18:09:32.287Z,100877.48
2019-01-25T18:12:03.848Z,100874.69
2019-01-25T18:14:35.203Z,100877.03
2019-01-25T18:17:06.553Z,100869.81
2019-01-25T18:19:38.125Z,100876.41
2019-01-25T18:22:09.743Z,100877.33
2019-01-25T18:24:40.994Z,100861.12
2019-01-25T18:27:12.294Z,100861.48
2019-01-25T18:29:59.032Z,100856.33
2019-01-25T18:32:30.553Z,100840.48
2019-01-25T18:35:01.830Z,100837.50
2019-01-25T18:37:33.775Z,100839.20
2019-01-25T18:40:07.138Z,100819.45
2019-01-25T18:42:38.642Z,100825.16
2019-01-25T18:45:13.072Z,100812.63
2019-01-25T18:47:44.330Z,100813.92
2019-01-25T18:50:17.349Z,100815.77
2019-01-25T18:52:48.938Z,100812.27
2019-01-25T18:55:21.576Z,100808.91
2019-01-25T18:57:53.280Z,100798.73
2019-01-25T19:00:26.042Z,100797.62
2019-01-25T19:02:57.966Z,100790.27
2019-01-25T19:05:30.623Z,100792.98
2019-01-25T19:08:02.035Z,100785.24
2019-01-25T19:10:33.643Z,100769.40
2019-01-25T19:13:06.427Z,100764.38
2019-01-25T19:15:37.887Z,100767.10
2019-01-25T19:18:09.657Z,100764.38
2019-01-25T19:20:44.448Z,100758.67
2019-01-25T19:23:15.546Z,100757.80
2019-01-25T19:25:47.286Z,100759.45
2019-01-25T19:28:19.819Z,100762.55
2019-01-25T19:30:51.270Z,100761.52
2019-01-25T19:33:22.877Z,100757.34
2019-01-25T19:35:54.228Z,100747.89
2019-01-25T19:38:25.777Z,100751.75
2019-01-25T19:40:57.229Z,100756.00
2019-01-25T19:43:28.581Z,100750.33
2019-01-25T19:45:59.981Z,100743.70
2019-01-25T19:48:31.346Z,100730.30
2019-01-25T19:51:02.717Z,100730.67
2019-01-25T19:53:33.949Z,100719.71
2019-01-25T19:56:05.500Z,100703.84
2019-01-25T19:58:36.903Z,100705.67
2019-01-25T20:01:08.562Z,100707.61
2019-01-25T20:03:40.047Z,100710.88
2019-01-25T20:06:11.288Z,100695.69
2019-01-25T20:08:43.614Z,100701.90
2019-01-25T20:11:14.913Z,100688.77
2019-01-25T20:13:46.427Z,100676.94
2019-01-25T20:16:17.756Z,100674.27
2019-01-25T20:18:49.392Z,100666.66
2019-01-25T20:21:20.803Z,100659.98
2019-01-25T20:23:52.177Z,100652.62
2019-01-25T20:26:23.715Z,100654.59
2019-01-25T20:28:55.192Z,100649.43
2019-01-25T20:31:27.652Z,100649.43
2019-01-25T20:33:59.105Z,100653.06
2019-01-25T20:36:30.630Z,100641.22
2019-01-25T20:39:02.038Z,100639.70
2019-01-25T20:41:34.833Z,100633.77
2019-01-25T20:44:06.192Z,100639.46
2019-01-25T20:46:37.738Z,100632.00
2019-01-25T20:49:09.164Z,100627.34
2019-01-25T20:51:40.655Z,100631.62
2019-01-25T20:54:11.946Z,100627.34
2019-01-25T20:56:43.280Z,100630.98
2019-01-25T20:59:14.582Z,100624.84
2019-01-25T21:01:45.856Z,100617.61
2019-01-25T21:04:17.370Z,100596.22
2019-01-25T21:06:49.349Z,100588.75
2019-01-25T21:09:20.909Z,100579.86
2019-01-25T21:11:52.381Z,100581.28
2019-01-25T21:14:23.880Z,100579.37
2019-01-25T21:16:55.326Z,100579.00
2019-01-25T21:19:35.386Z,100570.48
2019-01-25T21:22:44.926Z,100564.95
2019-01-25T21:25:25.716Z,100552.96
2019-01-25T21:28:09.604Z,100546.23
2019-01-25T21:30:41.341Z,100537.74
2019-01-25T21:33:14.977Z,100532.34
2019-01-25T21:35:46.229Z,100525.89
2019-01-25T21:38:17.674Z,100525.65
2019-01-25T21:40:49.093Z,100522.28
2019-01-25T21:43:20.339Z,100518.55
2019-01-25T21:45:51.703Z,100522.96
2019-01-25T21:48:22.941Z,100521.02
2019-01-25T21:51:08.496Z,100517.69
2019-01-25T21:53:41.960Z,100500.67
2019-01-25T21:56:14.270Z,100487.89
2019-01-25T21:58:50.387Z,100480.41
2019-01-25T22:01:22.095Z,100477.08
2019-01-25T22:04:17.461Z,100482.50
2019-01-25T22:06:52.361Z,100470.27
2019-01-25T22:09:23.757Z,100471.55
2019-01-25T22:11:57.019Z,100471.69
2019-01-25T22:14:28.265Z,100460.45
2019-01-25T22:16:59.761Z,100461.36
2019-01-25T22:19:31.110Z,100450.66
2019-01-25T22:22:02.379Z,100447.80
2019-01-25T22:24:33.848Z,100446.26
2019-01-25T22:27:05.327Z,100446.02
2019-01-25T22:29:36.891Z,100443.05
2019-01-25T22:32:09.766Z,100437.27
2019-01-25T22:34:41.034Z,100434.03
2019-01-25T22:37:12.511Z,100424.23
2019-01-25T22:39:44.350Z,100404.88
2019-01-25T22:42:17.664Z,100393.01
2019-01-25T22:44:49.331Z,100391.05
2019-01-25T22:47:20.675Z,100391.97
2019-01-25T22:49:52.292Z,100373.89
2019-01-25T22:52:23.665Z,100372.35
2019-01-25T22:54:55.027Z,100371.98
2019-01-25T22:57:26.659Z,100360.86
2019-01-25T22:59:58.524Z,100351.03
2019-01-25T23:02:29.901Z,100343.82
2019-01-25T23:05:24.752Z,100343.57
2019-01-25T23:07:57.081Z,100340.73
2019-01-25T23:10:28.838Z,100336.07
2019-01-25T23:13:00.132Z,100322.91
2019-01-25T23:15:31.628Z,100311.03
2019-01-25T23:18:02.925Z,100296.57
2019-01-25T23:20:34.379Z,100290.73
2019-01-25T23:23:07.276Z,100297.35
2019-01-25T23:25:40.327Z,100298.39
2019-01-25T23:28:13.086Z,100284.69
2019-01-25T23:30:46.323Z,100288.30
2019-01-25T23:33:17.856Z,100287.13
2019-01-25T23:35:49.282Z,100280.05
2019-01-25T23:38:20.609Z,100275.13
2019-01-25T23:40:51.946Z,100260.27
2019-01-25T23:43:23.119Z,100250.98
2019-01-25T23:45:54.742Z,100253.27
2019-01-25T23:48:27.857Z,100247.08
2019-01-25T23:50:59.135Z,100235.70
2019-01-25T23:53:30.633Z,100220.43
2019-01-25T23:56:04.130Z,100211.66
2019-01-25T23:58:36.140Z,100213.56
